sensor_id;sensor_type;location;lat;lon;timestamp;temperature;humidity
152;DHT22;68;48.792;9.164;2023-08-08T00:02:12;13.90;93.50
152;DHT22;68;48.792;9.164;2023-08-08T00:04:41;13.90;93.60
152;DHT22;68;48.792;9.164;2023-08-08T00:07:07;14.00;93.70
152;DHT22;68;48.792;9.164;2023-08-08T00:09:34;13.90;94.30
152;DHT22;68;48.792;9.164;2023-08-08T00:12:01;14.10;93.80
152;DHT22;68;48.792;9.164;2023-08-08T00:14:28;14.10;93.70
152;DHT22;68;48.792;9.164;2023-08-08T00:16:55;14.30;92.80
152;DHT22;68;48.792;9.164;2023-08-08T00:19:21;14.30;92.80
152;DHT22;68;48.792;9.164;2023-08-08T00:21:49;14.10;93.00
152;DHT22;68;48.792;9.164;2023-08-08T00:24:16;14.10;94.00
152;DHT22;68;48.792;9.164;2023-08-08T00:26:43;14.00;94.00
152;DHT22;68;48.792;9.164;2023-08-08T00:29:10;14.10;94.20
152;DHT22;68;48.792;9.164;2023-08-08T00:31:36;14.30;93.30
152;DHT22;68;48.792;9.164;2023-08-08T00:34:03;14.30;93.00
152;DHT22;68;48.792;9.164;2023-08-08T00:36:30;14.30;93.10
152;DHT22;68;48.792;9.164;2023-08-08T00:38:58;14.60;93.20
152;DHT22;68;48.792;9.164;2023-08-08T00:41:25;14.50;91.90
152;DHT22;68;48.792;9.164;2023-08-08T00:43:52;14.50;93.00
152;DHT22;68;48.792;9.164;2023-08-08T00:46:21;14.50;93.40
152;DHT22;68;48.792;9.164;2023-08-08T00:48:49;14.60;92.80
152;DHT22;68;48.792;9.164;2023-08-08T00:51:16;14.60;92.40
152;DHT22;68;48.792;9.164;2023-08-08T00:53:44;14.60;91.40
152;DHT22;68;48.792;9.164;2023-08-08T00:56:13;14.50;92.30
152;DHT22;68;48.792;9.164;2023-08-08T00:58:41;14.60;92.50
152;DHT22;68;48.792;9.164;2023-08-08T01:01:07;14.70;93.00
152;DHT22;68;48.792;9.164;2023-08-08T01:03:34;14.70;92.00
152;DHT22;68;48.792;9.164;2023-08-08T01:06:05;14.70;90.80
152;DHT22;68;48.792;9.164;2023-08-08T01:08:39;14.80;90.50
152;DHT22;68;48.792;9.164;2023-08-08T01:11:09;14.60;91.40
152;DHT22;68;48.792;9.164;2023-08-08T01:13:38;14.70;91.60
152;DHT22;68;48.792;9.164;2023-08-08T01:16:05;14.60;90.00
152;DHT22;68;48.792;9.164;2023-08-08T01:18:33;14.60;91.50
152;DHT22;68;48.792;9.164;2023-08-08T01:21:01;14.60;91.70
152;DHT22;68;48.792;9.164;2023-08-08T01:23:33;14.60;92.10
152;DHT22;68;48.792;9.164;2023-08-08T01:26:02;14.70;91.50
152;DHT22;68;48.792;9.164;2023-08-08T01:28:29;14.80;90.80
152;DHT22;68;48.792;9.164;2023-08-08T01:30:56;14.80;90.90
152;DHT22;68;48.792;9.164;2023-08-08T01:33:23;14.80;90.80
152;DHT22;68;48.792;9.164;2023-08-08T01:35:53;14.90;91.80
152;DHT22;68;48.792;9.164;2023-08-08T01:38:25;15.00;90.50
152;DHT22;68;48.792;9.164;2023-08-08T01:40:55;14.90;90.90
152;DHT22;68;48.792;9.164;2023-08-08T01:43:24;14.90;90.90
152;DHT22;68;48.792;9.164;2023-08-08T01:45:52;15.00;89.90
152;DHT22;68;48.792;9.164;2023-08-08T01:48:19;14.90;91.00
152;DHT22;68;48.792;9.164;2023-08-08T01:50:45;15.00;90.30
152;DHT22;68;48.792;9.164;2023-08-08T01:53:12;15.00;91.00
152;DHT22;68;48.792;9.164;2023-08-08T01:55:39;14.90;89.30
152;DHT22;68;48.792;9.164;2023-08-08T01:58:05;14.70;90.50
152;DHT22;68;48.792;9.164;2023-08-08T02:00:34;14.80;91.80
152;DHT22;68;48.792;9.164;2023-08-08T02:03:02;14.80;91.70
152;DHT22;68;48.792;9.164;2023-08-08T02:05:29;14.90;90.70
152;DHT22;68;48.792;9.164;2023-08-08T02:07:55;15.10;91.20
152;DHT22;68;48.792;9.164;2023-08-08T02:10:22;14.90;91.50
152;DHT22;68;48.792;9.164;2023-08-08T02:12:49;14.90;91.70
152;DHT22;68;48.792;9.164;2023-08-08T02:15:16;14.90;91.90
152;DHT22;68;48.792;9.164;2023-08-08T02:17:45;14.90;91.60
152;DHT22;68;48.792;9.164;2023-08-08T02:20:12;14.70;91.70
152;DHT22;68;48.792;9.164;2023-08-08T02:22:39;14.70;90.90
152;DHT22;68;48.792;9.164;2023-08-08T02:25:07;14.80;91.50
152;DHT22;68;48.792;9.164;2023-08-08T02:27:34;15.00;91.90
152;DHT22;68;48.792;9.164;2023-08-08T02:30:00;15.10;91.90
152;DHT22;68;48.792;9.164;2023-08-08T02:32:27;15.10;91.90
152;DHT22;68;48.792;9.164;2023-08-08T02:34:55;15.00;89.30
152;DHT22;68;48.792;9.164;2023-08-08T02:37:22;15.00;90.30
152;DHT22;68;48.792;9.164;2023-08-08T02:39:49;15.00;91.10
152;DHT22;68;48.792;9.164;2023-08-08T02:42:16;14.90;91.50
152;DHT22;68;48.792;9.164;2023-08-08T02:44:42;14.90;92.40
152;DHT22;68;48.792;9.164;2023-08-08T02:47:09;14.70;92.20
152;DHT22;68;48.792;9.164;2023-08-08T02:49:36;14.60;92.90
152;DHT22;68;48.792;9.164;2023-08-08T02:52:05;14.40;93.30
152;DHT22;68;48.792;9.164;2023-08-08T02:54:31;14.20;94.20
152;DHT22;68;48.792;9.164;2023-08-08T02:56:58;14.20;94.20
152;DHT22;68;48.792;9.164;2023-08-08T02:59:25;14.30;93.90
152;DHT22;68;48.792;9.164;2023-08-08T03:01:52;14.20;94.10
152;DHT22;68;48.792;9.164;2023-08-08T03:04:18;14.20;94.20
152;DHT22;68;48.792;9.164;2023-08-08T03:06:45;14.00;93.80
152;DHT22;68;48.792;9.164;2023-08-08T03:09:13;13.90;94.90
152;DHT22;68;48.792;9.164;2023-08-08T03:11:40;13.90;95.00
152;DHT22;68;48.792;9.164;2023-08-08T03:14:07;13.90;94.80
152;DHT22;68;48.792;9.164;2023-08-08T03:16:35;13.80;95.00
152;DHT22;68;48.792;9.164;2023-08-08T03:19:01;13.80;95.00
152;DHT22;68;48.792;9.164;2023-08-08T03:21:28;13.90;95.00
152;DHT22;68;48.792;9.164;2023-08-08T03:23:55;13.90;94.90
152;DHT22;68;48.792;9.164;2023-08-08T03:26:23;13.90;94.60
152;DHT22;68;48.792;9.164;2023-08-08T03:28:50;14.10;94.90
152;DHT22;68;48.792;9.164;2023-08-08T03:31:19;14.20;94.20
152;DHT22;68;48.792;9.164;2023-08-08T03:33:45;14.00;94.20
152;DHT22;68;48.792;9.164;2023-08-08T03:36:13;13.90;94.70
152;DHT22;68;48.792;9.164;2023-08-08T03:38:39;14.00;94.60
152;DHT22;68;48.792;9.164;2023-08-08T03:41:09;14.00;94.60
152;DHT22;68;48.792;9.164;2023-08-08T03:43:38;14.00;94.90
152;DHT22;68;48.792;9.164;2023-08-08T03:46:04;14.00;94.50
152;DHT22;68;48.792;9.164;2023-08-08T03:48:31;14.00;94.70
152;DHT22;68;48.792;9.164;2023-08-08T03:50:58;14.00;95.00
152;DHT22;68;48.792;9.164;2023-08-08T03:53:25;14.00;94.90
152;DHT22;68;48.792;9.164;2023-08-08T03:55:52;14.20;94.20
152;DHT22;68;48.792;9.164;2023-08-08T03:58:18;14.40;94.00
152;DHT22;68;48.792;9.164;2023-08-08T04:00:47;14.50;94.00
152;DHT22;68;48.792;9.164;2023-08-08T04:03:14;14.60;92.70
152;DHT22;68;48.792;9.164;2023-08-08T04:05:41;14.60;92.70
152;DHT22;68;48.792;9.164;2023-08-08T04:08:07;14.60;93.80
152;DHT22;68;48.792;9.164;2023-08-08T04:10:34;14.50;94.10
152;DHT22;68;48.792;9.164;2023-08-08T04:13:01;14.50;94.70
152;DHT22;68;48.792;9.164;2023-08-08T04:15:28;14.60;94.80
152;DHT22;68;48.792;9.164;2023-08-08T04:17:56;14.70;94.70
152;DHT22;68;48.792;9.164;2023-08-08T04:20:23;14.70;94.60
152;DHT22;68;48.792;9.164;2023-08-08T04:22:50;14.60;94.60
152;DHT22;68;48.792;9.164;2023-08-08T04:25:17;14.60;94.30
152;DHT22;68;48.792;9.164;2023-08-08T04:27:45;14.60;94.20
152;DHT22;68;48.792;9.164;2023-08-08T04:30:14;14.40;93.10
152;DHT22;68;48.792;9.164;2023-08-08T04:32:40;14.50;94.40
152;DHT22;68;48.792;9.164;2023-08-08T04:35:09;14.50;94.30
152;DHT22;68;48.792;9.164;2023-08-08T04:37:36;14.40;94.10
152;DHT22;68;48.792;9.164;2023-08-08T04:40:03;14.50;94.10
152;DHT22;68;48.792;9.164;2023-08-08T04:42:30;14.50;93.70
152;DHT22;68;48.792;9.164;2023-08-08T04:44:57;14.70;93.20
152;DHT22;68;48.792;9.164;2023-08-08T04:47:23;14.60;93.40
152;DHT22;68;48.792;9.164;2023-08-08T04:49:49;14.60;94.70
152;DHT22;68;48.792;9.164;2023-08-08T04:52:18;14.70;94.10
152;DHT22;68;48.792;9.164;2023-08-08T04:54:44;14.80;93.40
152;DHT22;68;48.792;9.164;2023-08-08T04:57:11;14.80;93.20
152;DHT22;68;48.792;9.164;2023-08-08T04:59:38;14.60;94.00
152;DHT22;68;48.792;9.164;2023-08-08T05:02:05;14.60;94.30
152;DHT22;68;48.792;9.164;2023-08-08T05:04:32;14.70;93.70
152;DHT22;68;48.792;9.164;2023-08-08T05:06:59;14.60;94.60
152;DHT22;68;48.792;9.164;2023-08-08T05:09:27;14.80;93.90
152;DHT22;68;48.792;9.164;2023-08-08T05:11:53;14.80;93.70
152;DHT22;68;48.792;9.164;2023-08-08T05:14:20;14.80;93.30
152;DHT22;68;48.792;9.164;2023-08-08T05:16:47;14.90;93.30
152;DHT22;68;48.792;9.164;2023-08-08T05:19:13;15.00;92.60
152;DHT22;68;48.792;9.164;2023-08-08T05:21:40;15.10;93.00
152;DHT22;68;48.792;9.164;2023-08-08T05:24:08;15.00;92.20
152;DHT22;68;48.792;9.164;2023-08-08T05:26:36;14.90;93.20
152;DHT22;68;48.792;9.164;2023-08-08T05:29:03;14.80;94.20
152;DHT22;68;48.792;9.164;2023-08-08T05:31:29;14.80;94.40
152;DHT22;68;48.792;9.164;2023-08-08T05:33:56;14.80;94.40
152;DHT22;68;48.792;9.164;2023-08-08T05:36:23;14.70;93.70
152;DHT22;68;48.792;9.164;2023-08-08T05:38:50;14.70;94.20
152;DHT22;68;48.792;9.164;2023-08-08T05:41:17;14.60;94.50
152;DHT22;68;48.792;9.164;2023-08-08T05:43:45;14.70;94.60
152;DHT22;68;48.792;9.164;2023-08-08T05:46:11;14.70;93.40
152;DHT22;68;48.792;9.164;2023-08-08T05:48:38;14.80;94.50
152;DHT22;68;48.792;9.164;2023-08-08T05:51:05;14.80;93.40
152;DHT22;68;48.792;9.164;2023-08-08T05:53:32;14.70;93.10
152;DHT22;68;48.792;9.164;2023-08-08T05:55:58;14.90;93.20
152;DHT22;68;48.792;9.164;2023-08-08T05:58:25;15.00;93.70
152;DHT22;68;48.792;9.164;2023-08-08T06:00:53;15.10;93.30
152;DHT22;68;48.792;9.164;2023-08-08T06:03:20;15.10;93.40
152;DHT22;68;48.792;9.164;2023-08-08T06:05:47;15.20;93.10
152;DHT22;68;48.792;9.164;2023-08-08T06:08:14;15.10;93.60
152;DHT22;68;48.792;9.164;2023-08-08T06:10:42;15.20;93.40
152;DHT22;68;48.792;9.164;2023-08-08T06:13:09;15.20;93.30
152;DHT22;68;48.792;9.164;2023-08-08T06:15:35;15.30;93.20
152;DHT22;68;48.792;9.164;2023-08-08T06:18:05;15.40;92.90
152;DHT22;68;48.792;9.164;2023-08-08T06:20:32;15.80;91.50
152;DHT22;68;48.792;9.164;2023-08-08T06:22:59;15.90;91.10
152;DHT22;68;48.792;9.164;2023-08-08T06:25:25;15.80;90.40
152;DHT22;68;48.792;9.164;2023-08-08T06:27:53;15.80;90.30
152;DHT22;68;48.792;9.164;2023-08-08T06:30:20;16.00;89.80
152;DHT22;68;48.792;9.164;2023-08-08T06:32:47;16.00;90.30
152;DHT22;68;48.792;9.164;2023-08-08T06:35:15;16.00;90.40
152;DHT22;68;48.792;9.164;2023-08-08T06:37:43;16.00;90.60
152;DHT22;68;48.792;9.164;2023-08-08T06:40:11;16.00;91.00
152;DHT22;68;48.792;9.164;2023-08-08T06:42:38;16.10;90.60
152;DHT22;68;48.792;9.164;2023-08-08T06:45:06;16.10;90.90
152;DHT22;68;48.792;9.164;2023-08-08T06:47:33;16.20;89.60
152;DHT22;68;48.792;9.164;2023-08-08T06:49:59;16.30;90.20
152;DHT22;68;48.792;9.164;2023-08-08T06:52:27;16.40;90.20
152;DHT22;68;48.792;9.164;2023-08-08T06:54:54;16.40;87.40
152;DHT22;68;48.792;9.164;2023-08-08T06:57:21;16.50;88.60
152;DHT22;68;48.792;9.164;2023-08-08T06:59:48;16.60;88.20
152;DHT22;68;48.792;9.164;2023-08-08T07:02:16;16.70;87.40
152;DHT22;68;48.792;9.164;2023-08-08T07:04:43;16.90;87.50
152;DHT22;68;48.792;9.164;2023-08-08T07:07:10;17.00;87.30
152;DHT22;68;48.792;9.164;2023-08-08T07:09:38;16.90;86.70
152;DHT22;68;48.792;9.164;2023-08-08T07:12:05;16.90;87.20
152;DHT22;68;48.792;9.164;2023-08-08T07:14:32;16.80;87.00
152;DHT22;68;48.792;9.164;2023-08-08T07:16:59;16.80;88.10
152;DHT22;68;48.792;9.164;2023-08-08T07:19:27;17.00;87.70
152;DHT22;68;48.792;9.164;2023-08-08T07:21:54;17.20;87.10
152;DHT22;68;48.792;9.164;2023-08-08T07:24:21;17.20;86.40
152;DHT22;68;48.792;9.164;2023-08-08T07:26:53;17.30;86.10
152;DHT22;68;48.792;9.164;2023-08-08T07:29:20;17.30;86.20
152;DHT22;68;48.792;9.164;2023-08-08T07:31:46;17.40;85.90
152;DHT22;68;48.792;9.164;2023-08-08T07:34:13;17.40;85.10
152;DHT22;68;48.792;9.164;2023-08-08T07:36:40;17.40;82.30
152;DHT22;68;48.792;9.164;2023-08-08T07:39:07;17.40;84.30
152;DHT22;68;48.792;9.164;2023-08-08T07:41:35;17.60;83.60
152;DHT22;68;48.792;9.164;2023-08-08T07:44:03;17.80;84.20
152;DHT22;68;48.792;9.164;2023-08-08T07:46:30;17.90;80.70
152;DHT22;68;48.792;9.164;2023-08-08T07:48:56;18.00;81.50
152;DHT22;68;48.792;9.164;2023-08-08T07:51:24;18.20;82.40
152;DHT22;68;48.792;9.164;2023-08-08T07:53:51;18.50;81.40
152;DHT22;68;48.792;9.164;2023-08-08T07:56:18;18.60;80.00
152;DHT22;68;48.792;9.164;2023-08-08T07:58:45;18.70;78.30
152;DHT22;68;48.792;9.164;2023-08-08T08:01:13;18.70;77.30
152;DHT22;68;48.792;9.164;2023-08-08T08:03:40;18.60;77.70
152;DHT22;68;48.792;9.164;2023-08-08T08:06:07;18.50;77.60
152;DHT22;68;48.792;9.164;2023-08-08T08:08:34;18.60;78.20
152;DHT22;68;48.792;9.164;2023-08-08T08:11:01;18.50;76.40
152;DHT22;68;48.792;9.164;2023-08-08T08:13:28;18.50;77.00
152;DHT22;68;48.792;9.164;2023-08-08T08:15:55;18.70;77.50
152;DHT22;68;48.792;9.164;2023-08-08T08:18:23;18.70;76.70
152;DHT22;68;48.792;9.164;2023-08-08T08:20:50;18.70;76.50
152;DHT22;68;48.792;9.164;2023-08-08T08:23:16;18.60;77.20
152;DHT22;68;48.792;9.164;2023-08-08T08:25:43;18.60;78.50
152;DHT22;68;48.792;9.164;2023-08-08T08:28:10;18.60;77.50
152;DHT22;68;48.792;9.164;2023-08-08T08:30:37;18.50;78.20
152;DHT22;68;48.792;9.164;2023-08-08T08:33:04;18.50;79.20
152;DHT22;68;48.792;9.164;2023-08-08T08:35:34;18.60;78.10
152;DHT22;68;48.792;9.164;2023-08-08T08:38:01;18.80;77.60
152;DHT22;68;48.792;9.164;2023-08-08T08:40:28;18.90;77.90
152;DHT22;68;48.792;9.164;2023-08-08T08:42:56;18.90;78.80
152;DHT22;68;48.792;9.164;2023-08-08T08:45:23;19.00;77.80
152;DHT22;68;48.792;9.164;2023-08-08T08:47:54;19.00;76.10
152;DHT22;68;48.792;9.164;2023-08-08T08:50:23;19.10;76.00
152;DHT22;68;48.792;9.164;2023-08-08T08:52:54;19.10;75.80
152;DHT22;68;48.792;9.164;2023-08-08T08:55:22;19.00;77.70
152;DHT22;68;48.792;9.164;2023-08-08T08:57:49;18.90;76.10
152;DHT22;68;48.792;9.164;2023-08-08T09:00:17;19.00;76.90
152;DHT22;68;48.792;9.164;2023-08-08T09:02:44;19.10;76.60
152;DHT22;68;48.792;9.164;2023-08-08T09:05:12;19.40;77.80
152;DHT22;68;48.792;9.164;2023-08-08T09:07:39;19.60;75.40
152;DHT22;68;48.792;9.164;2023-08-08T09:10:08;19.60;75.00
152;DHT22;68;48.792;9.164;2023-08-08T09:12:35;19.70;74.40
152;DHT22;68;48.792;9.164;2023-08-08T09:15:02;19.90;74.00
152;DHT22;68;48.792;9.164;2023-08-08T09:17:31;19.90;74.90
152;DHT22;68;48.792;9.164;2023-08-08T09:19:57;20.10;73.50
152;DHT22;68;48.792;9.164;2023-08-08T09:22:24;20.30;75.30
152;DHT22;68;48.792;9.164;2023-08-08T09:24:52;20.50;75.20
152;DHT22;68;48.792;9.164;2023-08-08T09:27:20;20.50;75.40
152;DHT22;68;48.792;9.164;2023-08-08T09:29:48;20.60;72.90
152;DHT22;68;48.792;9.164;2023-08-08T09:32:15;20.40;70.90
152;DHT22;68;48.792;9.164;2023-08-08T09:34:43;20.30;70.50
152;DHT22;68;48.792;9.164;2023-08-08T09:37:11;20.40;70.70
152;DHT22;68;48.792;9.164;2023-08-08T09:39:39;20.40;69.60
152;DHT22;68;48.792;9.164;2023-08-08T09:42:08;20.50;68.00
152;DHT22;68;48.792;9.164;2023-08-08T09:44:38;20.50;68.60
152;DHT22;68;48.792;9.164;2023-08-08T09:47:05;20.20;70.40
152;DHT22;68;48.792;9.164;2023-08-08T09:49:32;20.10;70.20
152;DHT22;68;48.792;9.164;2023-08-08T09:52:00;20.20;70.40
152;DHT22;68;48.792;9.164;2023-08-08T09:54:28;20.30;68.40
152;DHT22;68;48.792;9.164;2023-08-08T09:56:56;20.40;69.20
152;DHT22;68;48.792;9.164;2023-08-08T09:59:24;20.40;67.60
152;DHT22;68;48.792;9.164;2023-08-08T10:01:52;20.20;67.20
152;DHT22;68;48.792;9.164;2023-08-08T10:04:20;20.10;68.20
152;DHT22;68;48.792;9.164;2023-08-08T10:06:48;20.10;70.60
152;DHT22;68;48.792;9.164;2023-08-08T10:09:15;20.20;68.90
152;DHT22;68;48.792;9.164;2023-08-08T10:11:43;20.40;68.30
152;DHT22;68;48.792;9.164;2023-08-08T10:14:11;20.30;68.40
152;DHT22;68;48.792;9.164;2023-08-08T10:16:41;20.40;66.90
152;DHT22;68;48.792;9.164;2023-08-08T10:19:11;20.60;64.70
152;DHT22;68;48.792;9.164;2023-08-08T10:21:41;20.80;66.80
152;DHT22;68;48.792;9.164;2023-08-08T10:24:09;20.90;64.80
152;DHT22;68;48.792;9.164;2023-08-08T10:26:51;20.90;67.50
152;DHT22;68;48.792;9.164;2023-08-08T10:29:19;21.00;67.60
152;DHT22;68;48.792;9.164;2023-08-08T10:31:51;21.00;66.20
152;DHT22;68;48.792;9.164;2023-08-08T10:34:20;21.10;64.30
152;DHT22;68;48.792;9.164;2023-08-08T10:36:51;21.20;64.80
152;DHT22;68;48.792;9.164;2023-08-08T10:39:20;21.50;63.30
152;DHT22;68;48.792;9.164;2023-08-08T10:41:49;21.70;62.00
152;DHT22;68;48.792;9.164;2023-08-08T10:44:22;21.70;62.20
152;DHT22;68;48.792;9.164;2023-08-08T10:46:51;21.60;61.00
152;DHT22;68;48.792;9.164;2023-08-08T10:49:20;21.80;62.80
152;DHT22;68;48.792;9.164;2023-08-08T10:51:49;22.00;62.90
152;DHT22;68;48.792;9.164;2023-08-08T10:54:19;22.00;61.40
152;DHT22;68;48.792;9.164;2023-08-08T10:56:50;21.70;61.70
152;DHT22;68;48.792;9.164;2023-08-08T10:59:18;21.70;62.30
152;DHT22;68;48.792;9.164;2023-08-08T11:01:47;21.90;61.30
152;DHT22;68;48.792;9.164;2023-08-08T11:04:15;21.90;61.20
152;DHT22;68;48.792;9.164;2023-08-08T11:06:44;21.80;62.70
152;DHT22;68;48.792;9.164;2023-08-08T11:09:11;22.00;61.30
152;DHT22;68;48.792;9.164;2023-08-08T11:11:38;22.10;60.40
152;DHT22;68;48.792;9.164;2023-08-08T11:14:10;22.20;61.40
152;DHT22;68;48.792;9.164;2023-08-08T11:16:37;21.80;58.50
152;DHT22;68;48.792;9.164;2023-08-08T11:19:04;21.50;61.70
152;DHT22;68;48.792;9.164;2023-08-08T11:21:33;21.40;61.70
152;DHT22;68;48.792;9.164;2023-08-08T11:24:03;21.60;62.60
152;DHT22;68;48.792;9.164;2023-08-08T11:26:31;21.80;62.10
152;DHT22;68;48.792;9.164;2023-08-08T11:28:59;21.80;61.60
152;DHT22;68;48.792;9.164;2023-08-08T11:31:26;21.80;60.40
152;DHT22;68;48.792;9.164;2023-08-08T11:33:53;22.00;58.90
152;DHT22;68;48.792;9.164;2023-08-08T11:36:21;22.30;61.00
152;DHT22;68;48.792;9.164;2023-08-08T11:38:49;22.90;57.80
152;DHT22;68;48.792;9.164;2023-08-08T11:41:20;23.30;54.10
152;DHT22;68;48.792;9.164;2023-08-08T11:43:49;23.40;57.20
152;DHT22;68;48.792;9.164;2023-08-08T11:46:17;23.60;55.80
152;DHT22;68;48.792;9.164;2023-08-08T11:48:46;23.10;57.10
152;DHT22;68;48.792;9.164;2023-08-08T11:51:15;23.20;56.90
152;DHT22;68;48.792;9.164;2023-08-08T11:53:49;23.40;57.00
152;DHT22;68;48.792;9.164;2023-08-08T11:56:19;23.80;56.20
152;DHT22;68;48.792;9.164;2023-08-08T11:58:46;24.00;56.00
152;DHT22;68;48.792;9.164;2023-08-08T12:01:13;24.50;53.30
152;DHT22;68;48.792;9.164;2023-08-08T12:03:40;24.60;53.70
152;DHT22;68;48.792;9.164;2023-08-08T12:06:14;24.60;55.30
152;DHT22;68;48.792;9.164;2023-08-08T12:08:42;24.70;53.20
152;DHT22;68;48.792;9.164;2023-08-08T12:11:10;24.90;53.60
152;DHT22;68;48.792;9.164;2023-08-08T12:13:39;24.90;52.90
152;DHT22;68;48.792;9.164;2023-08-08T12:16:07;24.70;54.80
152;DHT22;68;48.792;9.164;2023-08-08T12:18:35;24.40;56.20
152;DHT22;68;48.792;9.164;2023-08-08T12:21:03;24.10;53.80
152;DHT22;68;48.792;9.164;2023-08-08T12:23:30;24.20;54.70
152;DHT22;68;48.792;9.164;2023-08-08T12:25:58;24.40;55.10
152;DHT22;68;48.792;9.164;2023-08-08T12:28:24;24.40;53.60
152;DHT22;68;48.792;9.164;2023-08-08T12:30:52;24.30;52.70
152;DHT22;68;48.792;9.164;2023-08-08T12:33:19;24.00;54.10
152;DHT22;68;48.792;9.164;2023-08-08T12:35:47;23.40;56.20
152;DHT22;68;48.792;9.164;2023-08-08T12:38:14;23.20;55.10
152;DHT22;68;48.792;9.164;2023-08-08T12:40:41;23.50;56.50
152;DHT22;68;48.792;9.164;2023-08-08T12:43:09;23.70;56.20
152;DHT22;68;48.792;9.164;2023-08-08T12:45:38;23.80;57.10
152;DHT22;68;48.792;9.164;2023-08-08T12:48:06;23.60;58.00
152;DHT22;68;48.792;9.164;2023-08-08T12:50:33;23.70;57.80
152;DHT22;68;48.792;9.164;2023-08-08T12:53:00;23.60;57.70
152;DHT22;68;48.792;9.164;2023-08-08T12:55:27;23.70;58.30
152;DHT22;68;48.792;9.164;2023-08-08T12:57:53;23.50;55.80
152;DHT22;68;48.792;9.164;2023-08-08T13:00:20;23.40;54.80
152;DHT22;68;48.792;9.164;2023-08-08T13:02:47;23.60;56.70
152;DHT22;68;48.792;9.164;2023-08-08T13:05:16;23.30;59.40
152;DHT22;68;48.792;9.164;2023-08-08T13:07:43;23.30;58.20
152;DHT22;68;48.792;9.164;2023-08-08T13:10:10;23.20;62.40
152;DHT22;68;48.792;9.164;2023-08-08T13:12:37;23.10;58.30
152;DHT22;68;48.792;9.164;2023-08-08T13:15:04;23.00;58.50
152;DHT22;68;48.792;9.164;2023-08-08T13:17:31;23.20;58.20
152;DHT22;68;48.792;9.164;2023-08-08T13:19:58;23.50;58.90
152;DHT22;68;48.792;9.164;2023-08-08T13:22:26;23.30;60.20
152;DHT22;68;48.792;9.164;2023-08-08T13:24:52;23.20;59.80
152;DHT22;68;48.792;9.164;2023-08-08T13:27:19;23.30;59.40
152;DHT22;68;48.792;9.164;2023-08-08T13:29:46;23.10;60.30
152;DHT22;68;48.792;9.164;2023-08-08T13:32:13;23.10;60.60
152;DHT22;68;48.792;9.164;2023-08-08T13:34:40;23.40;62.30
152;DHT22;68;48.792;9.164;2023-08-08T13:37:06;23.80;62.20
152;DHT22;68;48.792;9.164;2023-08-08T13:39:34;23.80;59.70
152;DHT22;68;48.792;9.164;2023-08-08T13:42:01;23.80;60.10
152;DHT22;68;48.792;9.164;2023-08-08T13:44:28;23.80;61.20
152;DHT22;68;48.792;9.164;2023-08-08T13:46:56;23.60;61.10
152;DHT22;68;48.792;9.164;2023-08-08T13:49:23;23.50;60.50
152;DHT22;68;48.792;9.164;2023-08-08T13:51:51;23.40;62.10
152;DHT22;68;48.792;9.164;2023-08-08T13:54:19;23.20;61.20
152;DHT22;68;48.792;9.164;2023-08-08T13:56:47;23.30;59.30
152;DHT22;68;48.792;9.164;2023-08-08T13:59:14;23.30;62.00
152;DHT22;68;48.792;9.164;2023-08-08T14:01:41;23.20;60.80
152;DHT22;68;48.792;9.164;2023-08-08T14:04:08;23.20;59.90
152;DHT22;68;48.792;9.164;2023-08-08T14:06:34;23.20;59.40
152;DHT22;68;48.792;9.164;2023-08-08T14:09:01;23.30;59.80
152;DHT22;68;48.792;9.164;2023-08-08T14:11:30;22.90;61.70
152;DHT22;68;48.792;9.164;2023-08-08T14:13:58;22.70;60.50
152;DHT22;68;48.792;9.164;2023-08-08T14:16:25;22.60;60.40
152;DHT22;68;48.792;9.164;2023-08-08T14:18:51;22.40;60.00
152;DHT22;68;48.792;9.164;2023-08-08T14:21:18;22.40;62.60
152;DHT22;68;48.792;9.164;2023-08-08T14:23:45;22.20;61.80
152;DHT22;68;48.792;9.164;2023-08-08T14:26:12;22.30;60.60
152;DHT22;68;48.792;9.164;2023-08-08T14:28:39;22.50;61.00
152;DHT22;68;48.792;9.164;2023-08-08T14:38:34;22.40;61.70
152;DHT22;68;48.792;9.164;2023-08-08T14:41:01;22.40;61.60
152;DHT22;68;48.792;9.164;2023-08-08T14:43:28;22.40;61.90
152;DHT22;68;48.792;9.164;2023-08-08T14:45:55;22.40;62.20
152;DHT22;68;48.792;9.164;2023-08-08T14:48:23;22.20;64.20
152;DHT22;68;48.792;9.164;2023-08-08T14:50:50;22.20;62.90
152;DHT22;68;48.792;9.164;2023-08-08T14:53:17;22.20;63.00
152;DHT22;68;48.792;9.164;2023-08-08T14:55:43;22.00;66.30
152;DHT22;68;48.792;9.164;2023-08-08T14:58:10;22.00;63.60
152;DHT22;68;48.792;9.164;2023-08-08T15:00:37;22.10;64.10
152;DHT22;68;48.792;9.164;2023-08-08T15:03:04;22.10;62.90
152;DHT22;68;48.792;9.164;2023-08-08T15:05:33;21.90;62.70
152;DHT22;68;48.792;9.164;2023-08-08T15:07:59;21.80;63.50
152;DHT22;68;48.792;9.164;2023-08-08T15:10:26;21.80;64.10
152;DHT22;68;48.792;9.164;2023-08-08T15:12:53;21.60;64.40
152;DHT22;68;48.792;9.164;2023-08-08T15:15:20;21.60;64.50
152;DHT22;68;48.792;9.164;2023-08-08T15:17:48;21.70;65.90
152;DHT22;68;48.792;9.164;2023-08-08T15:20:15;21.70;65.90
152;DHT22;68;48.792;9.164;2023-08-08T15:22:43;21.80;64.50
152;DHT22;68;48.792;9.164;2023-08-08T15:25:10;21.90;66.20
152;DHT22;68;48.792;9.164;2023-08-08T15:27:37;22.00;65.30
152;DHT22;68;48.792;9.164;2023-08-08T15:30:04;21.90;66.20
152;DHT22;68;48.792;9.164;2023-08-08T15:32:32;21.70;64.60
152;DHT22;68;48.792;9.164;2023-08-08T15:34:59;21.80;63.80
152;DHT22;68;48.792;9.164;2023-08-08T15:37:25;21.90;63.40
152;DHT22;68;48.792;9.164;2023-08-08T15:39:54;21.90;64.60
152;DHT22;68;48.792;9.164;2023-08-08T15:42:20;21.90;64.40
152;DHT22;68;48.792;9.164;2023-08-08T15:44:47;21.90;65.30
152;DHT22;68;48.792;9.164;2023-08-08T15:47:14;21.80;65.90
152;DHT22;68;48.792;9.164;2023-08-08T15:49:40;21.50;65.90
152;DHT22;68;48.792;9.164;2023-08-08T15:52:07;21.60;65.90
152;DHT22;68;48.792;9.164;2023-08-08T15:54:34;21.50;67.10
152;DHT22;68;48.792;9.164;2023-08-08T15:57:02;21.50;67.50
152;DHT22;68;48.792;9.164;2023-08-08T15:59:29;21.40;67.90
152;DHT22;68;48.792;9.164;2023-08-08T16:01:56;21.40;69.30
152;DHT22;68;48.792;9.164;2023-08-08T16:04:23;21.30;69.30
152;DHT22;68;48.792;9.164;2023-08-08T16:06:50;21.20;65.70
152;DHT22;68;48.792;9.164;2023-08-08T16:09:16;21.10;67.10
152;DHT22;68;48.792;9.164;2023-08-08T16:11:43;21.20;67.10
152;DHT22;68;48.792;9.164;2023-08-08T16:14:11;21.30;67.00
152;DHT22;68;48.792;9.164;2023-08-08T16:16:38;21.50;66.30
152;DHT22;68;48.792;9.164;2023-08-08T16:19:05;21.40;66.00
152;DHT22;68;48.792;9.164;2023-08-08T16:21:32;21.30;66.30
152;DHT22;68;48.792;9.164;2023-08-08T16:23:58;21.10;68.30
152;DHT22;68;48.792;9.164;2023-08-08T16:26:25;21.10;66.90
152;DHT22;68;48.792;9.164;2023-08-08T16:28:52;21.10;66.40
152;DHT22;68;48.792;9.164;2023-08-08T16:31:20;21.10;66.20
152;DHT22;68;48.792;9.164;2023-08-08T16:33:47;20.90;67.30
152;DHT22;68;48.792;9.164;2023-08-08T16:36:14;21.00;67.20
152;DHT22;68;48.792;9.164;2023-08-08T16:38:41;21.00;67.70
152;DHT22;68;48.792;9.164;2023-08-08T16:41:08;21.00;68.50
152;DHT22;68;48.792;9.164;2023-08-08T16:43:35;21.00;67.70
152;DHT22;68;48.792;9.164;2023-08-08T16:46:02;20.70;71.20
152;DHT22;68;48.792;9.164;2023-08-08T16:48:31;20.70;68.50
152;DHT22;68;48.792;9.164;2023-08-08T16:50:58;20.90;68.40
152;DHT22;68;48.792;9.164;2023-08-08T16:53:25;20.90;68.20
152;DHT22;68;48.792;9.164;2023-08-08T16:55:51;20.90;68.20
152;DHT22;68;48.792;9.164;2023-08-08T16:58:18;20.70;69.10
152;DHT22;68;48.792;9.164;2023-08-08T17:00:45;20.70;68.70